地図

経路データ

SID SEASON NUMBER BASIN SUBBASIN NAME ISO_TIME NATURE LAT LON WMO_WIND WMO_PRES WMO_AGENCY TRACK_TYPE DIST2LAND LANDFALL IFLAG USA_AGENCY USA_ATCF_ID USA_LAT USA_LON USA_RECORD USA_STATUS USA_WIND USA_PRES USA_SSHS USA_R34_NE USA_R34_SE USA_R34_SW USA_R34_NW USA_R50_NE USA_R50_SE USA_R50_SW USA_R50_NW USA_R64_NE USA_R64_SE USA_R64_SW USA_R64_NW USA_POCI USA_ROCI USA_RMW USA_EYE TOKYO_LAT TOKYO_LON TOKYO_GRADE TOKYO_WIND TOKYO_PRES TOKYO_R50_DIR TOKYO_R50_LONG TOKYO_R50_SHORT TOKYO_R30_DIR TOKYO_R30_LONG TOKYO_R30_SHORT TOKYO_LAND CMA_LAT CMA_LON CMA_CAT CMA_WIND CMA_PRES HKO_LAT HKO_LON HKO_CAT HKO_WIND HKO_PRES NEWDELHI_LAT NEWDELHI_LON NEWDELHI_GRADE NEWDELHI_WIND NEWDELHI_PRES NEWDELHI_CI NEWDELHI_DP NEWDELHI_POCI REUNION_LAT REUNION_LON REUNION_TYPE REUNION_WIND REUNION_PRES REUNION_TNUM REUNION_CI REUNION_RMW REUNION_R34_NE REUNION_R34_SE REUNION_R34_SW REUNION_R34_NW REUNION_R50_NE REUNION_R50_SE REUNION_R50_SW REUNION_R50_NW REUNION_R64_NE REUNION_R64_SE REUNION_R64_SW REUNION_R64_NW BOM_LAT BOM_LON BOM_TYPE BOM_WIND BOM_PRES BOM_TNUM BOM_CI BOM_RMW BOM_R34_NE BOM_R34_SE BOM_R34_SW BOM_R34_NW BOM_R50_NE BOM_R50_SE BOM_R50_SW BOM_R50_NW BOM_R64_NE BOM_R64_SE BOM_R64_SW BOM_R64_NW BOM_ROCI BOM_POCI BOM_EYE BOM_POS_METHOD BOM_PRES_METHOD NADI_LAT NADI_LON NADI_CAT NADI_WIND NADI_PRES WELLINGTON_LAT WELLINGTON_LON WELLINGTON_WIND WELLINGTON_PRES DS824_LAT DS824_LON DS824_STAGE DS824_WIND DS824_PRES TD9636_LAT TD9636_LON TD9636_STAGE TD9636_WIND TD9636_PRES TD9635_LAT TD9635_LON TD9635_WIND TD9635_PRES TD9635_ROCI NEUMANN_LAT NEUMANN_LON NEUMANN_CLASS NEUMANN_WIND NEUMANN_PRES MLC_LAT MLC_LON MLC_CLASS MLC_WIND MLC_PRES USA_GUST BOM_GUST BOM_GUST_PER REUNION_GUST REUNION_GUST_PER USA_SEAHGT USA_SEARAD_NE USA_SEARAD_SE USA_SEARAD_SW USA_SEARAD_NW STORM_SPEED STORM_DIR
1998236N13326 1998 54 NA NA DANIELLE 1998-08-24 06:00:00 TS 13.4000 -34.3000 25 1007 hurdat_atl main 1818 1818 O_____________ hurdat_atl AL041998 13.4000 -34.3000 TD 25 1007 -1 18 283
1998236N13326 1998 54 NA NA DANIELLE 1998-08-24 09:00:00 TS 13.6057 -35.2021 main 1912 1908 P_____________ AL041998 13.6057 -35.2021 TD 27 1006 -1 18 283
1998236N13326 1998 54 NA NA DANIELLE 1998-08-24 12:00:00 TS 13.8000 -36.1000 30 1006 hurdat_atl main 1915 1910 O_____________ hurdat_atl AL041998 13.8000 -36.1000 TD 30 1006 -1 18 282
1998236N13326 1998 54 NA NA DANIELLE 1998-08-24 15:00:00 TS 13.9846 -36.9929 main 1908 1849 P_____________ AL041998 13.9846 -36.9929 TD 32 1005 -1 18 283
1998236N13326 1998 54 NA NA DANIELLE 1998-08-24 18:00:00 TS 14.2000 -37.9000 35 1005 hurdat_atl main 1841 1784 O_____________ hurdat_atl AL041998 14.2000 -37.9000 TS 35 1005 0 19 286
1998236N13326 1998 54 NA NA DANIELLE 1998-08-24 21:00:00 TS 14.4923 -38.8499 main 1784 1731 P_____________ AL041998 14.4923 -38.8499 TS 37 1004 0 19 288
1998236N13326 1998 54 NA NA DANIELLE 1998-08-25 00:00:00 TS 14.8000 -39.8000 40 1003 hurdat_atl main 1723 1668 O_____________ hurdat_atl AL041998 14.8000 -39.8000 TS 40 1003 0 19 287
1998236N13326 1998 54 NA NA DANIELLE 1998-08-25 03:00:00 TS 15.0271 -40.7157 main 1668 1625 P_____________ AL041998 15.0271 -40.7157 TS 45 1000 0 18 286
1998236N13326 1998 54 NA NA DANIELLE 1998-08-25 06:00:00 TS 15.3000 -41.6000 50 997 hurdat_atl main 1626 1605 O_____________ hurdat_atl AL041998 15.3000 -41.6000 TS 50 997 0 18 293
1998236N13326 1998 54 NA NA DANIELLE 1998-08-25 09:00:00 TS 15.7343 -42.4350 main 1605 1593 P_____________ AL041998 15.7343 -42.4350 TS 57 993 0 19 299
1998236N13326 1998 54 NA NA DANIELLE 1998-08-25 12:00:00 TS 16.2000 -43.3000 65 990 hurdat_atl main 1593 1562 O_____________ hurdat_atl AL041998 16.2000 -43.3000 HU 65 990 1 20 295
1998236N13326 1998 54 NA NA DANIELLE 1998-08-25 15:00:00 TS 16.5648 -44.2780 main 1565 1534 P_____________ AL041998 16.5648 -44.2780 HU 70 986 1 20 290
1998236N13326 1998 54 NA NA DANIELLE 1998-08-25 18:00:00 TS 16.9000 -45.3000 75 982 hurdat_atl main 1532 1508 O_____________ hurdat_atl AL041998 16.9000 -45.3000 HU 75 982 1 21 289
1998236N13326 1998 54 NA NA DANIELLE 1998-08-25 21:00:00 TS 17.2422 -46.3154 main 1508 1499 P_____________ AL041998 17.2422 -46.3154 HU 77 981 1 20 290
1998236N13326 1998 54 NA NA DANIELLE 1998-08-26 00:00:00 TS 17.6000 -47.3000 80 980 hurdat_atl main 1501 1497 O_____________ hurdat_atl AL041998 17.6000 -47.3000 HU 80 980 1 20 293
1998236N13326 1998 54 NA NA DANIELLE 1998-08-26 03:00:00 TS 17.9992 -48.2004 main 1503 1498 P_____________ AL041998 17.9992 -48.2004 HU 85 977 2 19 295
1998236N13326 1998 54 NA NA DANIELLE 1998-08-26 06:00:00 TS 18.4000 -49.1000 90 975 hurdat_atl main 1505 1474 O_____________ hurdat_atl AL041998 18.4000 -49.1000 HU 90 975 2 20 293
1998236N13326 1998 54 NA NA DANIELLE 1998-08-26 09:00:00 TS 18.7650 -50.1077 main 1481 1427 P_____________ AL041998 18.7650 -50.1077 HU 87 977 2 20 290
1998236N13326 1998 54 NA NA DANIELLE 1998-08-26 12:00:00 TS 19.1000 -51.1000 85 980 hurdat_atl main 1419 1379 O_____________ hurdat_atl AL041998 19.1000 -51.1000 HU 85 980 2 19 291
1998236N13326 1998 54 NA NA DANIELLE 1998-08-26 15:00:00 TS 19.4213 -51.9430 main 1379 1343 P_____________ AL041998 19.4213 -51.9430 HU 82 982 1 17 291
1998236N13326 1998 54 NA NA DANIELLE 1998-08-26 18:00:00 TS 19.7000 -52.8000 80 985 hurdat_atl main 1337 1250 O_____________ hurdat_atl AL041998 19.7000 -52.8000 HU 80 985 1 19 285
1998236N13326 1998 54 NA NA DANIELLE 1998-08-26 21:00:00 TS 19.9078 -53.8430 main 1250 1149 P_____________ AL041998 19.9078 -53.8430 HU 80 989 1 20 281
1998236N13326 1998 54 NA NA DANIELLE 1998-08-27 00:00:00 TS 20.1000 -54.9000 80 993 hurdat_atl main 1139 1049 O_____________ hurdat_atl AL041998 20.1000 -54.9000 HU 80 993 1 19 283
1998236N13326 1998 54 NA NA DANIELLE 1998-08-27 03:00:00 TS 20.3342 -55.8229 main 1049 964 P_____________ AL041998 20.3342 -55.8229 HU 82 993 1 18 286
1998236N13326 1998 54 NA NA DANIELLE 1998-08-27 06:00:00 TS 20.6000 -56.7000 85 994 hurdat_atl main 964 883 O_____________ hurdat_atl AL041998 20.6000 -56.7000 HU 85 994 2 18 288
1998236N13326 1998 54 NA NA DANIELLE 1998-08-27 09:00:00 TS 20.8923 -57.6151 main 883 805 P_____________ AL041998 20.8923 -57.6151 HU 87 994 2 18 290
1998236N13326 1998 54 NA NA DANIELLE 1998-08-27 12:00:00 TS 21.2000 -58.5000 90 994 hurdat_atl main 805 744 O_____________ hurdat_atl AL041998 21.2000 -58.5000 HU 90 994 2 17 291
1998236N13326 1998 54 NA NA DANIELLE 1998-08-27 15:00:00 TS 21.4994 -59.3154 main 744 688 P_____________ AL041998 21.4994 -59.3154 HU 87 994 2 16 292
1998236N13326 1998 54 NA NA DANIELLE 1998-08-27 18:00:00 TS 21.8000 -60.1000 85 994 hurdat_atl main 688 641 O_____________ hurdat_atl AL041998 21.8000 -60.1000 HU 85 994 2 16 293
1998236N13326 1998 54 NA NA DANIELLE 1998-08-27 21:00:00 TS 22.1222 -60.9074 main 641 604 P_____________ AL041998 22.1222 -60.9074 HU 82 993 1 16 292
1998236N13326 1998 54 NA NA DANIELLE 1998-08-28 00:00:00 TS 22.4000 -61.7000 80 992 hurdat_atl main 604 566 O_____________ hurdat_atl AL041998 22.4000 -61.7000 HU 80 992 1 15 287
1998236N13326 1998 54 NA NA DANIELLE 1998-08-28 03:00:00 TS 22.5723 -62.4805 main 569 541 P_____________ AL041998 22.5723 -62.4805 HU 80 992 1 14 282
1998236N13326 1998 54 NA NA DANIELLE 1998-08-28 06:00:00 TS 22.7000 -63.2000 80 992 hurdat_atl main 541 526 O_____________ hurdat_atl AL041998 22.7000 -63.2000 HU 80 992 1 13 282
1998236N13326 1998 54 NA NA DANIELLE 1998-08-28 09:00:00 TS 22.8419 -63.8153 main 526 523 P_____________ AL041998 22.8419 -63.8153 HU 80 990 1 11 285
1998236N13326 1998 54 NA NA DANIELLE 1998-08-28 12:00:00 TS 23.0000 -64.4000 80 989 hurdat_atl main 529 524 O_____________ hurdat_atl AL041998 23.0000 -64.4000 HU 80 989 1 12 287
1998236N13326 1998 54 NA NA DANIELLE 1998-08-28 15:00:00 TS 23.1849 -65.0501 main 539 538 P_____________ AL041998 23.1849 -65.0501 HU 80 987 1 13 289
1998236N13326 1998 54 NA NA DANIELLE 1998-08-28 18:00:00 TS 23.4000 -65.7000 80 986 hurdat_atl main 559 559 O_____________ hurdat_atl AL041998 23.4000 -65.7000 HU 80 986 1 12 292
1998236N13326 1998 54 NA NA DANIELLE 1998-08-28 21:00:00 TS 23.6496 -66.3001 main 572 565 P_____________ AL041998 23.6496 -66.3001 HU 77 987 1 12 294
1998236N13326 1998 54 NA NA DANIELLE 1998-08-29 00:00:00 TS 23.9000 -66.9000 75 989 hurdat_atl main 570 560 O_____________ hurdat_atl AL041998 23.9000 -66.9000 HU 75 989 1 12 291
1998236N13326 1998 54 NA NA DANIELLE 1998-08-29 03:00:00 TS 24.0999 -67.5503 main 560 554 P_____________ AL041998 24.0999 -67.5503 HU 72 989 1 13 289
1998236N13326 1998 54 NA NA DANIELLE 1998-08-29 06:00:00 TS 24.3000 -68.2000 70 990 hurdat_atl main 557 553 O_____________ hurdat_atl AL041998 24.3000 -68.2000 HU 70 990 1 12 291
1998236N13326 1998 54 NA NA DANIELLE 1998-08-29 09:00:00 TS 24.5348 -68.8152 main 557 544 P_____________ AL041998 24.5348 -68.8152 HU 70 989 1 12 295
1998236N13326 1998 54 NA NA DANIELLE 1998-08-29 12:00:00 TS 24.8000 -69.4000 70 988 hurdat_atl main 545 529 O_____________ hurdat_atl AL041998 24.8000 -69.4000 HU 70 988 1 12 298
1998236N13326 1998 54 NA NA DANIELLE 1998-08-29 15:00:00 TS 25.0999 -69.9725 main 532 529 P_____________ AL041998 25.0999 -69.9725 HU 70 987 1 12 301
1998236N13326 1998 54 NA NA DANIELLE 1998-08-29 18:00:00 TS 25.4000 -70.5000 70 987 hurdat_atl main 534 529 O_____________ hurdat_atl AL041998 25.4000 -70.5000 HU 70 987 1 11 302
1998236N13326 1998 54 NA NA DANIELLE 1998-08-29 21:00:00 TS 25.6573 -70.9728 main 542 538 P_____________ AL041998 25.6573 -70.9728 HU 67 987 1 10 302
1998236N13326 1998 54 NA NA DANIELLE 1998-08-30 00:00:00 TS 25.9000 -71.4000 65 987 hurdat_atl main 549 547 O_____________ hurdat_atl AL041998 25.9000 -71.4000 HU 65 987 1 9 303
1998236N13326 1998 54 NA NA DANIELLE 1998-08-30 03:00:00 TS 26.1498 -71.8003 main 561 561 P_____________ AL041998 26.1498 -71.8003 HU 65 987 1 9 305
1998236N13326 1998 54 NA NA DANIELLE 1998-08-30 06:00:00 TS 26.4000 -72.2000 65 988 hurdat_atl main 586 562 O_____________ hurdat_atl AL041998 26.4000 -72.2000 HU 65 988 1 9 303
1998236N13326 1998 54 NA NA DANIELLE 1998-08-30 09:00:00 TS 26.6425 -72.6502 main 553 528 P_____________ AL041998 26.6425 -72.6502 HU 65 989 1 9 302
1998236N13326 1998 54 NA NA DANIELLE 1998-08-30 12:00:00 TS 26.9000 -73.1000 65 990 hurdat_atl main 528 501 O_____________ hurdat_atl AL041998 26.9000 -73.1000 HU 65 990 1 10 305
1998236N13326 1998 54 NA NA DANIELLE 1998-08-30 15:00:00 TS 27.2076 -73.5522 main 497 488 P_____________ AL041998 27.2076 -73.5522 HU 65 988 1 9 310
1998236N13326 1998 54 NA NA DANIELLE 1998-08-30 18:00:00 TS 27.5000 -73.9000 65 987 hurdat_atl main 488 486 O_____________ hurdat_atl AL041998 27.5000 -73.9000 HU 65 987 1 7 319
1998236N13326 1998 54 NA NA DANIELLE 1998-08-30 21:00:00 TS 27.7073 -74.0454 main 492 484 P_____________ AL041998 27.7073 -74.0454 HU 67 985 1 4 336
1998236N13326 1998 54 NA NA DANIELLE 1998-08-31 00:00:00 TS 27.9000 -74.1000 70 983 hurdat_atl main 498 497 O_____________ hurdat_atl AL041998 27.9000 -74.1000 HU 70 983 1 4 338
1998236N13326 1998 54 NA NA DANIELLE 1998-08-31 03:00:00 TS 28.1200 -74.2298 main 504 504 P_____________ AL041998 28.1200 -74.2298 HU 72 981 1 5 340
1998236N13326 1998 54 NA NA DANIELLE 1998-08-31 06:00:00 TS 28.4000 -74.3000 75 980 hurdat_atl main 520 520 O_____________ hurdat_atl AL041998 28.4000 -74.3000 HU 75 980 1 7 0
1998236N13326 1998 54 NA NA DANIELLE 1998-08-31 09:00:00 TS 28.7775 -74.2451 main 558 558 P_____________ AL041998 28.7775 -74.2451 HU 82 978 1 8 13
1998236N13326 1998 54 NA NA DANIELLE 1998-08-31 12:00:00 TS 29.2000 -74.1000 90 977 hurdat_atl main 598 598 O_____________ hurdat_atl AL041998 29.2000 -74.1000 HU 90 977 2 9 19
1998236N13326 1998 54 NA NA DANIELLE 1998-08-31 15:00:00 TS 29.5925 -73.9150 main 616 586 P_____________ AL041998 29.5925 -73.9150 HU 87 976 2 9 23
1998236N13326 1998 54 NA NA DANIELLE 1998-08-31 18:00:00 TS 30.0000 -73.7000 85 975 hurdat_atl main 586 555 O_____________ hurdat_atl AL041998 30.0000 -73.7000 HU 85 975 2 9 22
1998236N13326 1998 54 NA NA DANIELLE 1998-08-31 21:00:00 TS 30.4499 -73.5147 main 555 518 P_____________ AL041998 30.4499 -73.5147 HU 85 974 2 10 21
1998236N13326 1998 54 NA NA DANIELLE 1998-09-01 00:00:00 TS 30.9000 -73.3000 85 973 hurdat_atl main 518 493 O_____________ hurdat_atl AL041998 30.9000 -73.3000 HU 85 973 2 10 26
1998236N13326 1998 54 NA NA DANIELLE 1998-09-01 03:00:00 TS 31.3300 -73.0225 main 499 486 P_____________ AL041998 31.3300 -73.0225 HU 85 972 2 10 33
1998236N13326 1998 54 NA NA DANIELLE 1998-09-01 06:00:00 TS 31.7000 -72.7000 85 972 hurdat_atl main 486 484 O_____________ hurdat_atl AL041998 31.7000 -72.7000 HU 85 972 2 8 40
1998236N13326 1998 54 NA NA DANIELLE 1998-09-01 09:00:00 TS 31.9570 -72.4015 main 484 484 P_____________ AL041998 31.9570 -72.4015 HU 85 970 2 8 50
1998236N13326 1998 54 NA NA DANIELLE 1998-09-01 12:00:00 TS 32.2000 -72.0000 85 968 hurdat_atl main 498 498 O_____________ hurdat_atl AL041998 32.2000 -72.0000 HU 85 968 2 10 56
1998236N13326 1998 54 NA NA DANIELLE 1998-09-01 15:00:00 TS 32.5274 -71.4172 main 524 524 P_____________ AL041998 32.5274 -71.4172 HU 87 966 2 13 57
1998236N13326 1998 54 NA NA DANIELLE 1998-09-01 18:00:00 TS 32.9000 -70.7000 90 965 hurdat_atl main 545 545 O_____________ hurdat_atl AL041998 32.9000 -70.7000 HU 90 965 2 15 59
1998236N13326 1998 54 NA NA DANIELLE 1998-09-01 21:00:00 TS 33.2850 -69.9146 main 582 582 P_____________ AL041998 33.2850 -69.9146 HU 85 966 2 16 59
1998236N13326 1998 54 NA NA DANIELLE 1998-09-02 00:00:00 TS 33.7000 -69.1000 80 967 hurdat_atl main 628 628 O_____________ hurdat_atl AL041998 33.7000 -69.1000 HU 80 967 1 15 57
1998236N13326 1998 54 NA NA DANIELLE 1998-09-02 03:00:00 TS 34.1033 -68.3920 main 672 672 P_____________ AL041998 34.1033 -68.3920 HU 77 968 1 15 54
1998236N13326 1998 54 NA NA DANIELLE 1998-09-02 06:00:00 TS 34.6000 -67.6000 75 970 hurdat_atl main 728 728 O_____________ hurdat_atl AL041998 34.6000 -67.6000 HU 75 970 1 19 53
1998236N13326 1998 54 NA NA DANIELLE 1998-09-02 09:00:00 TS 35.2252 -66.5586 main 781 743 P_____________ AL041998 35.2252 -66.5586 HU 72 972 1 23 52
1998236N13326 1998 54 NA NA DANIELLE 1998-09-02 12:00:00 TS 36.0000 -65.4000 70 975 hurdat_atl main 748 724 O_____________ hurdat_atl AL041998 36.0000 -65.4000 HU 70 975 1 25 47
1998236N13326 1998 54 NA NA DANIELLE 1998-09-02 15:00:00 TS 36.9026 -64.3064 main 723 658 P_____________ AL041998 36.9026 -64.3064 HU 70 975 1 26 44
1998236N13326 1998 54 NA NA DANIELLE 1998-09-02 18:00:00 TS 37.9000 -63.1000 70 975 hurdat_atl main 649 598 O_____________ hurdat_atl AL041998 37.9000 -63.1000 HU 70 975 1 29 47
1998236N13326 1998 54 NA NA DANIELLE 1998-09-02 21:00:00 TS 38.8786 -61.6212 main 597 578 P_____________ AL041998 38.8786 -61.6212 HU 70 972 1 31 49
1998236N13326 1998 54 NA NA DANIELLE 1998-09-03 00:00:00 TS 39.9000 -60.1000 70 970 hurdat_atl main 577 502 O_____________ hurdat_atl AL041998 39.9000 -60.1000 HU 70 970 1 31 45
1998236N13326 1998 54 NA NA DANIELLE 1998-09-03 03:00:00 TS 41.0496 -58.7766 main 502 444 P_____________ AL041998 41.0496 -58.7766 HU 70 965 1 29 42
1998236N13326 1998 54 NA NA DANIELLE 1998-09-03 06:00:00 TS 42.1000 -57.5000 70 960 hurdat_atl main 449 442 O_____________ hurdat_atl AL041998 42.1000 -57.5000 HU 70 960 1 26 48
1998236N13326 1998 54 NA NA DANIELLE 1998-09-03 09:00:00 TS 42.8230 -56.1659 main 446 369 P_____________ AL041998 42.8230 -56.1659 HU 70 962 1 24 57
1998236N13326 1998 54 NA NA DANIELLE 1998-09-03 12:00:00 TS 43.4000 -54.8000 70 965 hurdat_atl main 367 288 O_____________ hurdat_atl AL041998 43.4000 -54.8000 HU 70 965 1 24 58
1998236N13326 1998 54 NA NA DANIELLE 1998-09-03 15:00:00 TS 44.0796 -53.4045 main 277 237 P_____________ AL041998 44.0796 -53.4045 HU 67 965 1 24 60
1998236N13326 1998 54 NA NA DANIELLE 1998-09-03 18:00:00 TS 44.6000 -51.9000 65 965 hurdat_atl main 243 243 O_____________ hurdat_atl AL041998 44.6000 -51.9000 HU 65 965 1 23 72
1998236N13326 1998 54 NA NA DANIELLE 1998-09-03 21:00:00 TS 44.7773 -50.3137 main 300 300 P_____________ AL041998 44.7773 -50.3137 HU 65 970 1 24 85
1998236N13326 1998 54 NA NA DANIELLE 1998-09-04 00:00:00 ET 44.8000 -48.5000 65 975 hurdat_atl main 412 412 O_____________ hurdat_atl AL041998 44.8000 -48.5000 EX 65 975 -4 29 88
1998236N13326 1998 54 NA NA DANIELLE 1998-09-04 03:00:00 ET 44.8616 -46.2568 main 558 558 P_____________ AL041998 44.8616 -46.2568 EX 62 980 -4 32 88
1998236N13326 1998 54 NA NA DANIELLE 1998-09-04 06:00:00 ET 44.9000 -44.0000 60 985 hurdat_atl main 719 719 O_____________ hurdat_atl AL041998 44.9000 -44.0000 EX 60 985 -4 29 89
1998236N13326 1998 54 NA NA DANIELLE 1998-09-04 09:00:00 ET 44.9286 -42.1735 main 847 847 P_____________ AL041998 44.9286 -42.1735 EX 60 981 -4 25 88
1998236N13326 1998 54 NA NA DANIELLE 1998-09-04 12:00:00 ET 45.0000 -40.5000 60 978 hurdat_atl main 966 966 O_____________ hurdat_atl AL041998 45.0000 -40.5000 EX 60 978 -4 24 86
1998236N13326 1998 54 NA NA DANIELLE 1998-09-04 15:00:00 ET 45.1081 -38.7852 main 1087 1087 P_____________ AL041998 45.1081 -38.7852 EX 60 977 -4 25 83
1998236N13326 1998 54 NA NA DANIELLE 1998-09-04 18:00:00 ET 45.3000 -37.0000 60 976 hurdat_atl main 1213 1213 O_____________ hurdat_atl AL041998 45.3000 -37.0000 EX 60 976 -4 26 80
1998236N13326 1998 54 NA NA DANIELLE 1998-09-04 21:00:00 ET 45.5718 -35.1112 main 1346 1346 P_____________ AL041998 45.5718 -35.1112 EX 60 975 -4 29 78
1998236N13326 1998 54 NA NA DANIELLE 1998-09-05 00:00:00 ET 45.9000 -33.0000 60 975 hurdat_atl main 1494 1494 O_____________ hurdat_atl AL041998 45.9000 -33.0000 EX 60 975 -4 33 79
1998236N13326 1998 54 NA NA DANIELLE 1998-09-05 03:00:00 ET 46.2150 -30.4271 main 1573 1405 P_____________ AL041998 46.2150 -30.4271 EX 60 974 -4 35 80
1998236N13326 1998 54 NA NA DANIELLE 1998-09-05 06:00:00 ET 46.5000 -28.0000 60 973 hurdat_atl main 1398 1283 O_____________ hurdat_atl AL041998 46.5000 -28.0000 EX 60 973 -4 28 80
1998236N13326 1998 54 NA NA DANIELLE 1998-09-05 09:00:00 ET 46.7107 -26.3433 main 1276 1182 P_____________ AL041998 46.7107 -26.3433 EX 60 971 -4 21 76
1998236N13326 1998 54 NA NA DANIELLE 1998-09-05 12:00:00 ET 47.0000 -25.0000 60 970 hurdat_atl main 1175 1063 O_____________ hurdat_atl AL041998 47.0000 -25.0000 EX 60 970 -4 20 71
1998236N13326 1998 54 NA NA DANIELLE 1998-09-05 15:00:00 ET 47.3858 -23.4937 main 1056 933 P_____________ AL041998 47.3858 -23.4937 EX 60 968 -4 23 64
1998236N13326 1998 54 NA NA DANIELLE 1998-09-05 18:00:00 ET 48.0000 -22.0000 60 967 hurdat_atl main 926 775 O_____________ hurdat_atl AL041998 48.0000 -22.0000 EX 60 967 -4 26 53
1998236N13326 1998 54 NA NA DANIELLE 1998-09-05 21:00:00 ET 48.9649 -20.3621 main 769 642 P_____________ AL041998 48.9649 -20.3621 EX 60 965 -4 28 45
1998236N13326 1998 54 NA NA DANIELLE 1998-09-06 00:00:00 ET 50.0000 -19.0000 60 964 hurdat_atl main 632 563 O_____________ hurdat_atl AL041998 50.0000 -19.0000 EX 60 964 -4 22 35
1998236N13326 1998 54 NA NA DANIELLE 1998-09-06 03:00:00 ET 50.7988 -18.3320 main 556 517 P_____________ AL041998 50.7988 -18.3320 EX 57 964 -4 16 23
1998236N13326 1998 54 NA NA DANIELLE 1998-09-06 06:00:00 ET 51.5000 -18.0000 55 965 hurdat_atl main 517 475 O_____________ hurdat_atl AL041998 51.5000 -18.0000 EX 55 965 -4 15 20
1998236N13326 1998 54 NA NA DANIELLE 1998-09-06 09:00:00 ET 52.2250 -17.5057 main 475 450 P_____________ AL041998 52.2250 -17.5057 EX 55 965 -4 14 23
1998236N13326 1998 54 NA NA DANIELLE 1998-09-06 12:00:00 ET 52.8000 -17.1000 55 965 hurdat_atl main 451 441 O_____________ hurdat_atl AL041998 52.8000 -17.1000 EX 55 965 -4 10 24
1998236N13326 1998 54 NA NA DANIELLE 1998-09-06 15:00:00 ET 53.1096 -16.8674 main 443 429 P_____________ AL041998 53.1096 -16.8674 EX 55 966 -4 6 26
1998236N13326 1998 54 NA NA DANIELLE 1998-09-06 18:00:00 ET 53.3000 -16.7000 55 967 hurdat_atl main 429 408 O_____________ hurdat_atl AL041998 53.3000 -16.7000 EX 55 967 -4 5 31
1998236N13326 1998 54 NA NA DANIELLE 1998-09-06 21:00:00 ET 53.5351 -16.4351 main 408 395 P_____________ AL041998 53.5351 -16.4351 EX 52 968 -4 6 31
1998236N13326 1998 54 NA NA DANIELLE 1998-09-07 00:00:00 ET 53.8000 -16.2000 50 970 hurdat_atl main 396 388 O_____________ hurdat_atl AL041998 53.8000 -16.2000 EX 50 970 -4 6 16
1998236N13326 1998 54 NA NA DANIELLE 1998-09-07 03:00:00 ET 54.1496 -16.1359 main 388 381 P_____________ AL041998 54.1496 -16.1359 EX 47 972 -4 7 10
1998236N13326 1998 54 NA NA DANIELLE 1998-09-07 06:00:00 ET 54.5000 -16.0000 45 975 hurdat_atl main 381 357 O_____________ hurdat_atl AL041998 54.5000 -16.0000 EX 45 975 -4 7 30
1998236N13326 1998 54 NA NA DANIELLE 1998-09-07 09:00:00 ET 54.7428 -15.5594 main 357 326 P_____________ AL041998 54.7428 -15.5594 EX 42 976 -4 8 49
1998236N13326 1998 54 NA NA DANIELLE 1998-09-07 12:00:00 ET 55.0000 -15.0000 40 977 hurdat_atl main 326 306 O_____________ hurdat_atl AL041998 55.0000 -15.0000 EX 40 977 -4 9 43
1998236N13326 1998 54 NA NA DANIELLE 1998-09-07 15:00:00 ET 55.3924 -14.4931 main 310 303 P_____________ AL041998 55.3924 -14.4931 EX 37 978 -4 10 35
1998236N13326 1998 54 NA NA DANIELLE 1998-09-07 18:00:00 ET 55.8000 -14.0000 35 979 hurdat_atl main 304 299 O_____________ hurdat_atl AL041998 55.8000 -14.0000 EX 35 979 -4 9 36
1998236N13326 1998 54 NA NA DANIELLE 1998-09-07 21:00:00 ET 56.1146 -13.5557 main 305 300 P_____________ AL041998 56.1146 -13.5557 EX 32 979 -4 8 40
1998236N13326 1998 54 NA NA DANIELLE 1998-09-08 00:00:00 ET 56.4000 -13.1000 30 980 hurdat_atl main 308 304 O_____________ hurdat_atl AL041998 56.4000 -13.1000 EX 30 980 -4 8 43
1998236N13326 1998 54 NA NA DANIELLE 1998-09-08 03:00:00 ET 56.6957 -12.5750 main 318 304 P_____________ AL041998 56.6957 -12.5750 EX 30 980 -4 8 45
1998236N13326 1998 54 NA NA DANIELLE 1998-09-08 06:00:00 ET 57.0000 -12.0000 30 980 hurdat_atl main 304 O_____________ hurdat_atl AL041998 57.0000 -12.0000 EX 30 980 -4 9 46

IBTrACS Databaseについて

本データベースは、米国NOAAが公開する1842年以降の世界の熱帯低気圧のベストトラックデータアーカイブInternational Best Track Archive for Climate Stewardship (IBTrACS)を、ウェブで閲覧しやすい形式に変換したものです。

最終更新日:2021-12-06